Time;durP1;ratioP1;P1;durP2;ratioP2;P2;SDS_P1;SDS_P2;PMS_P1;PMS_P2;Temp;Humidity;BMP_temperature;BMP_pressure;BME280_temperature;BME280_humidity;BME280_pressure;Samples;Min_cycle;Max_cycle;Signal;HPM_P1;HPM_P2
2019/05/18 00:01:00;;;;;;;7.150001;6.450001;;;;;;;7.8;70.34668;94102.14;;;;
2019/05/18 00:02:01;;;;;;;7.150001;6.450001;;;;;;;7.8;70.34668;94102.14;;;;
2019/05/18 00:03:02;;;;;;;7.150001;6.450001;;;;;;;7.8;70.34668;94102.14;;;;
2019/05/18 00:04:03;;;;;;;7.150001;6.450001;;;;;;;7.8;70.34668;94102.14;;;;
2019/05/18 00:05:04;;;;;;;7.150001;6.450001;;;;;;;7.8;70.34668;94102.14;;;;
2019/05/18 00:06:05;;;;;;;7.150001;6.450001;;;;;;;7.8;70.34668;94102.14;;;;
2019/05/18 00:07:06;;;;;;;6.999999;5.65;;;;;;;7.71;70.79883;94109.11;;;;
2019/05/18 00:08:07;;;;;;;6.999999;5.65;;;;;;;7.71;70.79883;94109.11;;;;
2019/05/18 00:09:08;;;;;;;6.999999;5.65;;;;;;;7.71;70.79883;94109.11;;;;
2019/05/18 00:10:10;;;;;;;6.999999;5.65;;;;;;;7.71;70.79883;94109.11;;;;
2019/05/18 00:11:11;;;;;;;6.999999;5.65;;;;;;;7.71;70.79883;94109.11;;;;
2019/05/18 00:12:12;;;;;;;6.999999;5.65;;;;;;;7.71;70.79883;94109.11;;;;
2019/05/18 00:13:13;;;;;;;6.999999;5.65;;;;;;;7.71;70.79883;94109.11;;;;
2019/05/18 00:14:14;;;;;;;6.999999;5.65;;;;;;;7.71;70.79883;94109.11;;;;
2019/05/18 00:15:15;;;;;;;6.999999;5.65;;;;;;;7.71;70.79883;94109.11;;;;
2019/05/18 00:16:16;;;;;;;6.999999;5.65;;;;;;;7.71;70.79883;94109.11;;;;
2019/05/18 00:17:18;;;;;;;6.999999;5.65;;;;;;;7.71;70.79883;94109.11;;;;
2019/05/18 00:18:19;;;;;;;6.999999;5.65;;;;;;;7.71;70.79883;94109.11;;;;
2019/05/18 00:19:20;;;;;;;6.999999;5.65;;;;;;;7.71;70.79883;94109.11;;;;
2019/05/18 00:20:21;;;;;;;6.999999;5.65;;;;;;;7.71;70.79883;94109.11;;;;
2019/05/18 00:21:22;;;;;;;6.999999;5.65;;;;;;;7.71;70.79883;94109.11;;;;
2019/05/18 00:22:23;;;;;;;6.999999;5.65;;;;;;;7.71;70.79883;94109.11;;;;
2019/05/18 00:23:24;;;;;;;6.999999;5.65;;;;;;;7.71;70.79883;94109.11;;;;
2019/05/18 00:24:25;;;;;;;6.999999;5.65;;;;;;;7.71;70.79883;94109.11;;;;
2019/05/18 00:25:26;;;;;;;6.999999;5.65;;;;;;;7.71;70.79883;94109.11;;;;
2019/05/18 00:26:27;;;;;;;6.999999;5.65;;;;;;;7.71;70.79883;94109.11;;;;
2019/05/18 00:27:28;;;;;;;6.999999;5.65;;;;;;;7.71;70.79883;94109.11;;;;
2019/05/18 00:28:29;;;;;;;7.3;5.85;;;;;;;7.4;71.4834;94100.61;;;;
2019/05/18 00:29:30;;;;;;;7.3;5.85;;;;;;;7.4;71.4834;94100.61;;;;
2019/05/18 00:30:31;;;;;;;7.3;5.85;;;;;;;7.4;71.4834;94100.61;;;;
2019/05/18 00:31:32;;;;;;;7.3;5.85;;;;;;;7.4;71.4834;94100.61;;;;
2019/05/18 00:32:34;;;;;;;7.3;5.85;;;;;;;7.4;71.4834;94100.61;;;;
2019/05/18 00:33:35;;;;;;;7.3;5.85;;;;;;;7.4;71.4834;94100.61;;;;
2019/05/18 00:34:36;;;;;;;7.3;5.85;;;;;;;7.4;71.4834;94100.61;;;;
2019/05/18 00:35:37;;;;;;;7.3;5.85;;;;;;;7.4;71.4834;94100.61;;;;
2019/05/18 00:36:38;;;;;;;7.3;5.85;;;;;;;7.4;71.4834;94100.61;;;;
2019/05/18 00:37:39;;;;;;;7.3;5.85;;;;;;;7.4;71.4834;94100.61;;;;
2019/05/18 00:38:40;;;;;;;6.5;5.5;;;;;;;7.25;71.7666;94103.97;;;;
2019/05/18 00:39:41;;;;;;;6.5;5.5;;;;;;;7.25;71.7666;94103.97;;;;
2019/05/18 00:40:42;;;;;;;6.5;5.5;;;;;;;7.25;71.7666;94103.97;;;;
2019/05/18 00:41:43;;;;;;;6.5;5.5;;;;;;;7.25;71.7666;94103.97;;;;
2019/05/18 00:42:44;;;;;;;6.5;5.5;;;;;;;7.25;71.7666;94103.97;;;;
2019/05/18 00:43:45;;;;;;;6.5;5.5;;;;;;;7.25;71.7666;94103.97;;;;
2019/05/18 00:44:46;;;;;;;6.5;5.5;;;;;;;7.25;71.7666;94103.97;;;;
2019/05/18 00:45:47;;;;;;;6.5;5.5;;;;;;;7.25;71.7666;94103.97;;;;
2019/05/18 00:46:49;;;;;;;6.5;5.5;;;;;;;7.25;71.7666;94103.97;;;;
2019/05/18 00:47:50;;;;;;;6.5;5.5;;;;;;;7.25;71.7666;94103.97;;;;
2019/05/18 00:48:51;;;;;;;6.5;5.5;;;;;;;7.25;71.7666;94103.97;;;;
2019/05/18 00:49:52;;;;;;;6.1;5.55;;;;;;;7.17;72.10547;94091.39;;;;
2019/05/18 00:50:53;;;;;;;6.1;5.55;;;;;;;7.17;72.10547;94091.39;;;;
2019/05/18 00:51:54;;;;;;;6.1;5.55;;;;;;;7.17;72.10547;94091.39;;;;
2019/05/18 00:52:55;;;;;;;6.1;5.55;;;;;;;7.17;72.10547;94091.39;;;;
2019/05/18 00:53:56;;;;;;;6.1;5.55;;;;;;;7.17;72.10547;94091.39;;;;
2019/05/18 00:54:57;;;;;;;6.1;5.55;;;;;;;7.17;72.10547;94091.39;;;;
2019/05/18 00:55:58;;;;;;;6.1;5.55;;;;;;;7.17;72.10547;94091.39;;;;
2019/05/18 00:56:59;;;;;;;6.1;5.55;;;;;;;7.17;72.10547;94091.39;;;;
2019/05/18 00:58:00;;;;;;;6.1;5.55;;;;;;;7.17;72.10547;94091.39;;;;
2019/05/18 00:59:01;;;;;;;6.1;5.55;;;;;;;7.17;72.10547;94091.39;;;;
2019/05/18 01:00:02;;;;;;;6.05;5.55;;;;;;;7.05;72.42285;94085.4;;;;
2019/05/18 01:01:04;;;;;;;6.05;5.55;;;;;;;7.05;72.42285;94085.4;;;;
2019/05/18 01:02:05;;;;;;;6.05;5.55;;;;;;;7.05;72.42285;94085.4;;;;
2019/05/18 01:03:06;;;;;;;6.05;5.55;;;;;;;7.05;72.42285;94085.4;;;;
2019/05/18 01:04:07;;;;;;;6.05;5.55;;;;;;;7.05;72.42285;94085.4;;;;
2019/05/18 01:05:09;;;;;;;6.05;5.55;;;;;;;7.05;72.42285;94085.4;;;;
2019/05/18 01:06:10;;;;;;;6.05;5.55;;;;;;;7.05;72.42285;94085.4;;;;
2019/05/18 01:07:11;;;;;;;6.05;5.55;;;;;;;7.05;72.42285;94085.4;;;;
2019/05/18 01:08:12;;;;;;;6.05;5.55;;;;;;;7.05;72.42285;94085.4;;;;
2019/05/18 01:09:13;;;;;;;6.05;5.55;;;;;;;7.05;72.42285;94085.4;;;;
2019/05/18 01:10:14;;;;;;;5.750001;5.25;;;;;;;6.98;72.79395;94089.98;;;;
2019/05/18 01:11:16;;;;;;;5.750001;5.25;;;;;;;6.98;72.79395;94089.98;;;;
2019/05/18 01:12:17;;;;;;;5.750001;5.25;;;;;;;6.98;72.79395;94089.98;;;;
2019/05/18 01:13:18;;;;;;;5.750001;5.25;;;;;;;6.98;72.79395;94089.98;;;;
2019/05/18 01:14:19;;;;;;;5.750001;5.25;;;;;;;6.98;72.79395;94089.98;;;;
2019/05/18 01:15:21;;;;;;;5.750001;5.25;;;;;;;6.98;72.79395;94089.98;;;;
2019/05/18 01:16:22;;;;;;;5.750001;5.25;;;;;;;6.98;72.79395;94089.98;;;;
2019/05/18 01:17:23;;;;;;;5.750001;5.25;;;;;;;6.98;72.79395;94089.98;;;;
2019/05/18 01:18:24;;;;;;;5.750001;5.25;;;;;;;6.98;72.79395;94089.98;;;;
2019/05/18 01:19:25;;;;;;;5.750001;5.25;;;;;;;6.98;72.79395;94089.98;;;;
2019/05/18 01:20:26;;;;;;;5.750001;5.25;;;;;;;6.98;72.79395;94089.98;;;;
2019/05/18 01:21:27;;;;;;;5.749999;5.25;;;;;;;6.87;73.125;94086.04;;;;
2019/05/18 01:22:29;;;;;;;5.749999;5.25;;;;;;;6.87;73.125;94086.04;;;;
2019/05/18 01:23:30;;;;;;;5.749999;5.25;;;;;;;6.87;73.125;94086.04;;;;
2019/05/18 01:24:31;;;;;;;5.749999;5.25;;;;;;;6.87;73.125;94086.04;;;;
2019/05/18 01:25:32;;;;;;;5.749999;5.25;;;;;;;6.87;73.125;94086.04;;;;
2019/05/18 01:26:33;;;;;;;5.749999;5.25;;;;;;;6.87;73.125;94086.04;;;;
2019/05/18 01:27:34;;;;;;;5.749999;5.25;;;;;;;6.87;73.125;94086.04;;;;
2019/05/18 01:28:36;;;;;;;5.749999;5.25;;;;;;;6.87;73.125;94086.04;;;;
2019/05/18 01:29:37;;;;;;;5.749999;5.25;;;;;;;6.87;73.125;94086.04;;;;
2019/05/18 01:30:38;;;;;;;5.749999;5.25;;;;;;;6.87;73.125;94086.04;;;;
2019/05/18 01:31:39;;;;;;;5.849999;5.299999;;;;;;;6.82;73.4248;94085;;;;
2019/05/18 01:32:40;;;;;;;5.849999;5.299999;;;;;;;6.82;73.4248;94085;;;;
2019/05/18 01:33:41;;;;;;;5.849999;5.299999;;;;;;;6.82;73.4248;94085;;;;
2019/05/18 01:34:42;;;;;;;5.849999;5.299999;;;;;;;6.82;73.4248;94085;;;;
2019/05/18 01:35:44;;;;;;;5.849999;5.299999;;;;;;;6.82;73.4248;94085;;;;
2019/05/18 01:36:45;;;;;;;5.849999;5.299999;;;;;;;6.82;73.4248;94085;;;;
2019/05/18 01:37:46;;;;;;;5.849999;5.299999;;;;;;;6.82;73.4248;94085;;;;
2019/05/18 01:38:47;;;;;;;5.849999;5.299999;;;;;;;6.82;73.4248;94085;;;;
2019/05/18 01:39:48;;;;;;;5.849999;5.299999;;;;;;;6.82;73.4248;94085;;;;
2019/05/18 01:40:49;;;;;;;5.849999;5.299999;;;;;;;6.82;73.4248;94085;;;;
2019/05/18 01:41:51;;;;;;;5.849999;5.299999;;;;;;;6.82;73.4248;94085;;;;
2019/05/18 01:42:52;;;;;;;6.1;5.5;;;;;;;6.69;73.74219;94077.28;;;;
2019/05/18 01:43:53;;;;;;;6.1;5.5;;;;;;;6.69;73.74219;94077.28;;;;
2019/05/18 01:44:54;;;;;;;6.1;5.5;;;;;;;6.69;73.74219;94077.28;;;;
2019/05/18 01:45:55;;;;;;;6.1;5.5;;;;;;;6.69;73.74219;94077.28;;;;
2019/05/18 01:46:57;;;;;;;6.1;5.5;;;;;;;6.69;73.74219;94077.28;;;;
2019/05/18 01:47:58;;;;;;;6.1;5.5;;;;;;;6.69;73.74219;94077.28;;;;
2019/05/18 01:48:59;;;;;;;6.1;5.5;;;;;;;6.69;73.74219;94077.28;;;;
2019/05/18 01:50:00;;;;;;;6.1;5.5;;;;;;;6.69;73.74219;94077.28;;;;
2019/05/18 01:51:01;;;;;;;6.1;5.5;;;;;;;6.69;73.74219;94077.28;;;;
2019/05/18 01:52:02;;;;;;;6.1;5.5;;;;;;;6.69;73.74219;94077.28;;;;
2019/05/18 01:53:03;;;;;;;6.4;5.799999;;;;;;;6.69;74.08203;94068.27;;;;
2019/05/18 01:54:04;;;;;;;6.4;5.799999;;;;;;;6.69;74.08203;94068.27;;;;
2019/05/18 01:55:06;;;;;;;6.4;5.799999;;;;;;;6.69;74.08203;94068.27;;;;
2019/05/18 01:56:07;;;;;;;6.4;5.799999;;;;;;;6.69;74.08203;94068.27;;;;
2019/05/18 01:57:08;;;;;;;6.4;5.799999;;;;;;;6.69;74.08203;94068.27;;;;
2019/05/18 01:58:09;;;;;;;6.4;5.799999;;;;;;;6.69;74.08203;94068.27;;;;
2019/05/18 01:59:10;;;;;;;6.4;5.799999;;;;;;;6.69;74.08203;94068.27;;;;
2019/05/18 02:00:12;;;;;;;6.4;5.799999;;;;;;;6.69;74.08203;94068.27;;;;
2019/05/18 02:01:13;;;;;;;6.4;5.799999;;;;;;;6.69;74.08203;94068.27;;;;
2019/05/18 02:02:14;;;;;;;6.4;5.799999;;;;;;;6.69;74.08203;94068.27;;;;
2019/05/18 02:03:15;;;;;;;6.450001;5.649999;;;;;;;6.62;74.37793;94068.95;;;;
2019/05/18 02:04:16;;;;;;;6.450001;5.649999;;;;;;;6.62;74.37793;94068.95;;;;
2019/05/18 02:05:17;;;;;;;6.450001;5.649999;;;;;;;6.62;74.37793;94068.95;;;;
2019/05/18 02:06:18;;;;;;;6.450001;5.649999;;;;;;;6.62;74.37793;94068.95;;;;
2019/05/18 02:07:19;;;;;;;6.450001;5.649999;;;;;;;6.62;74.37793;94068.95;;;;
2019/05/18 02:08:21;;;;;;;6.450001;5.649999;;;;;;;6.62;74.37793;94068.95;;;;
2019/05/18 02:09:22;;;;;;;6.450001;5.649999;;;;;;;6.62;74.37793;94068.95;;;;
2019/05/18 02:10:23;;;;;;;6.450001;5.649999;;;;;;;6.62;74.37793;94068.95;;;;
2019/05/18 02:11:24;;;;;;;6.450001;5.649999;;;;;;;6.62;74.37793;94068.95;;;;
2019/05/18 02:12:25;;;;;;;6.450001;5.649999;;;;;;;6.62;74.37793;94068.95;;;;
2019/05/18 02:13:26;;;;;;;6.450001;5.649999;;;;;;;6.62;74.37793;94068.95;;;;
2019/05/18 02:14:28;;;;;;;7.850001;6.3;;;;;;;6.65;74.6709;94059.52;;;;
2019/05/18 02:15:29;;;;;;;7.850001;6.3;;;;;;;6.65;74.6709;94059.52;;;;
2019/05/18 02:16:30;;;;;;;7.850001;6.3;;;;;;;6.65;74.6709;94059.52;;;;
2019/05/18 02:17:32;;;;;;;7.850001;6.3;;;;;;;6.65;74.6709;94059.52;;;;
2019/05/18 02:18:33;;;;;;;7.850001;6.3;;;;;;;6.65;74.6709;94059.52;;;;
2019/05/18 02:19:34;;;;;;;7.850001;6.3;;;;;;;6.65;74.6709;94059.52;;;;
2019/05/18 02:20:35;;;;;;;7.850001;6.3;;;;;;;6.65;74.6709;94059.52;;;;
2019/05/18 02:21:36;;;;;;;7.850001;6.3;;;;;;;6.65;74.6709;94059.52;;;;
2019/05/18 02:22:37;;;;;;;7.850001;6.3;;;;;;;6.65;74.6709;94059.52;;;;
2019/05/18 02:23:38;;;;;;;7.850001;6.3;;;;;;;6.65;74.6709;94059.52;;;;
2019/05/18 02:24:39;;;;;;;7.4;6.649999;;;;;;;6.59;74.99707;94057.9;;;;
2019/05/18 02:25:41;;;;;;;7.4;6.649999;;;;;;;6.59;74.99707;94057.9;;;;
2019/05/18 02:26:42;;;;;;;7.4;6.649999;;;;;;;6.59;74.99707;94057.9;;;;
2019/05/18 02:27:43;;;;;;;7.4;6.649999;;;;;;;6.59;74.99707;94057.9;;;;
2019/05/18 02:28:44;;;;;;;7.4;6.649999;;;;;;;6.59;74.99707;94057.9;;;;
2019/05/18 02:29:45;;;;;;;7.4;6.649999;;;;;;;6.59;74.99707;94057.9;;;;
2019/05/18 02:30:47;;;;;;;7.4;6.649999;;;;;;;6.59;74.99707;94057.9;;;;
2019/05/18 02:31:48;;;;;;;7.4;6.649999;;;;;;;6.59;74.99707;94057.9;;;;
2019/05/18 02:32:49;;;;;;;7.4;6.649999;;;;;;;6.59;74.99707;94057.9;;;;
2019/05/18 02:33:50;;;;;;;7.4;6.649999;;;;;;;6.59;74.99707;94057.9;;;;
2019/05/18 02:34:51;;;;;;;7.4;6.649999;;;;;;;6.59;74.99707;94057.9;;;;
2019/05/18 02:35:52;;;;;;;7;6.35;;;;;;;6.57;75.27051;94059.89;;;;
2019/05/18 02:36:54;;;;;;;7;6.35;;;;;;;6.57;75.27051;94059.89;;;;
2019/05/18 02:38:12;;;;;;;7;6.35;;;;;;;6.57;75.27051;94059.89;;;;
2019/05/18 02:39:13;;;;;;;7;6.35;;;;;;;6.57;75.27051;94059.89;;;;
2019/05/18 02:40:14;;;;;;;7;6.35;;;;;;;6.57;75.27051;94059.89;;;;
2019/05/18 02:41:15;;;;;;;7;6.35;;;;;;;6.57;75.27051;94059.89;;;;
2019/05/18 02:42:17;;;;;;;7;6.35;;;;;;;6.57;75.27051;94059.89;;;;
2019/05/18 02:43:18;;;;;;;7;6.35;;;;;;;6.57;75.27051;94059.89;;;;
2019/05/18 02:44:19;;;;;;;7;6.35;;;;;;;6.57;75.27051;94059.89;;;;
2019/05/18 02:45:20;;;;;;;7;6.35;;;;;;;6.57;75.27051;94059.89;;;;
2019/05/18 02:46:22;;;;;;;7.65;6.85;;;;;;;6.53;75.54883;94054.32;;;;
2019/05/18 02:47:23;;;;;;;7.65;6.85;;;;;;;6.53;75.54883;94054.32;;;;
2019/05/18 02:48:24;;;;;;;7.65;6.85;;;;;;;6.53;75.54883;94054.32;;;;
2019/05/18 02:49:25;;;;;;;7.65;6.85;;;;;;;6.53;75.54883;94054.32;;;;
2019/05/18 02:50:26;;;;;;;7.65;6.85;;;;;;;6.53;75.54883;94054.32;;;;
2019/05/18 02:51:27;;;;;;;7.65;6.85;;;;;;;6.53;75.54883;94054.32;;;;
2019/05/18 02:52:28;;;;;;;7.65;6.85;;;;;;;6.53;75.54883;94054.32;;;;
2019/05/18 02:53:29;;;;;;;7.65;6.85;;;;;;;6.53;75.54883;94054.32;;;;
2019/05/18 02:54:30;;;;;;;7.65;6.85;;;;;;;6.53;75.54883;94054.32;;;;
2019/05/18 02:55:31;;;;;;;7.65;6.85;;;;;;;6.53;75.54883;94054.32;;;;
2019/05/18 02:56:32;;;;;;;8.299998;7.5;;;;;;;6.61;75.86914;94054.46;;;;
2019/05/18 02:57:34;;;;;;;8.299998;7.5;;;;;;;6.61;75.86914;94054.46;;;;
2019/05/18 02:58:35;;;;;;;8.299998;7.5;;;;;;;6.61;75.86914;94054.46;;;;
2019/05/18 02:59:36;;;;;;;8.299998;7.5;;;;;;;6.61;75.86914;94054.46;;;;
2019/05/18 03:00:37;;;;;;;8.299998;7.5;;;;;;;6.61;75.86914;94054.46;;;;
2019/05/18 03:01:38;;;;;;;8.299998;7.5;;;;;;;6.61;75.86914;94054.46;;;;
2019/05/18 03:02:39;;;;;;;8.299998;7.5;;;;;;;6.61;75.86914;94054.46;;;;
2019/05/18 03:03:40;;;;;;;8.299998;7.5;;;;;;;6.61;75.86914;94054.46;;;;
2019/05/18 03:04:41;;;;;;;8.299998;7.5;;;;;;;6.61;75.86914;94054.46;;;;
2019/05/18 03:05:42;;;;;;;8.299998;7.5;;;;;;;6.61;75.86914;94054.46;;;;
2019/05/18 03:06:43;;;;;;;7;6.3;;;;;;;6.63;76.1377;94048.33;;;;
2019/05/18 03:07:44;;;;;;;7;6.3;;;;;;;6.63;76.1377;94048.33;;;;
2019/05/18 03:08:46;;;;;;;7;6.3;;;;;;;6.63;76.1377;94048.33;;;;
2019/05/18 03:09:47;;;;;;;7;6.3;;;;;;;6.63;76.1377;94048.33;;;;
2019/05/18 03:10:48;;;;;;;7;6.3;;;;;;;6.63;76.1377;94048.33;;;;
2019/05/18 03:11:49;;;;;;;7;6.3;;;;;;;6.63;76.1377;94048.33;;;;
2019/05/18 03:12:50;;;;;;;7;6.3;;;;;;;6.63;76.1377;94048.33;;;;
2019/05/18 03:13:51;;;;;;;7;6.3;;;;;;;6.63;76.1377;94048.33;;;;
2019/05/18 03:14:52;;;;;;;7;6.3;;;;;;;6.63;76.1377;94048.33;;;;
2019/05/18 03:15:53;;;;;;;7;6.3;;;;;;;6.63;76.1377;94048.33;;;;
2019/05/18 03:16:54;;;;;;;7;6.3;;;;;;;6.63;76.1377;94048.33;;;;
2019/05/18 03:17:55;;;;;;;7;6.3;;;;;;;6.63;76.1377;94048.33;;;;
2019/05/18 03:18:56;;;;;;;7;6.3;;;;;;;6.63;76.1377;94048.33;;;;
2019/05/18 03:19:58;;;;;;;7;6.3;;;;;;;6.63;76.1377;94048.33;;;;
2019/05/18 03:20:59;;;;;;;7;6.3;;;;;;;6.63;76.1377;94048.33;;;;
2019/05/18 03:22:00;;;;;;;7;6.3;;;;;;;6.63;76.1377;94048.33;;;;
2019/05/18 03:23:01;;;;;;;7;6.3;;;;;;;6.63;76.1377;94048.33;;;;
2019/05/18 03:24:02;;;;;;;7;6.3;;;;;;;6.63;76.1377;94048.33;;;;
2019/05/18 03:25:03;;;;;;;7;6.3;;;;;;;6.63;76.1377;94048.33;;;;
2019/05/18 03:26:04;;;;;;;7;6.3;;;;;;;6.63;76.1377;94048.33;;;;
2019/05/18 03:27:05;;;;;;;7;6.3;;;;;;;6.63;76.1377;94048.33;;;;
2019/05/18 03:28:06;;;;;;;7.2;6.550001;;;;;;;6.57;76.65918;94058.14;;;;
2019/05/18 03:29:08;;;;;;;7.2;6.550001;;;;;;;6.57;76.65918;94058.14;;;;
2019/05/18 03:30:09;;;;;;;7.2;6.550001;;;;;;;6.57;76.65918;94058.14;;;;
2019/05/18 03:31:10;;;;;;;7.2;6.550001;;;;;;;6.57;76.65918;94058.14;;;;
2019/05/18 03:32:11;;;;;;;7.2;6.550001;;;;;;;6.57;76.65918;94058.14;;;;
2019/05/18 03:33:12;;;;;;;7.2;6.550001;;;;;;;6.57;76.65918;94058.14;;;;
2019/05/18 03:34:13;;;;;;;7.2;6.550001;;;;;;;6.57;76.65918;94058.14;;;;
2019/05/18 03:35:14;;;;;;;7.2;6.550001;;;;;;;6.57;76.65918;94058.14;;;;
2019/05/18 03:36:15;;;;;;;7.2;6.550001;;;;;;;6.57;76.65918;94058.14;;;;
2019/05/18 03:37:16;;;;;;;7.2;6.550001;;;;;;;6.57;76.65918;94058.14;;;;
2019/05/18 03:38:17;;;;;;;7.2;6.550001;;;;;;;6.57;76.65918;94058.14;;;;
2019/05/18 03:39:18;;;;;;;8.45;7.65;;;;;;;6.56;76.88867;94057.05;;;;
2019/05/18 03:40:19;;;;;;;8.45;7.65;;;;;;;6.56;76.88867;94057.05;;;;
2019/05/18 03:41:21;;;;;;;8.45;7.65;;;;;;;6.56;76.88867;94057.05;;;;
2019/05/18 03:42:22;;;;;;;8.45;7.65;;;;;;;6.56;76.88867;94057.05;;;;
2019/05/18 03:43:23;;;;;;;8.45;7.65;;;;;;;6.56;76.88867;94057.05;;;;
2019/05/18 03:44:24;;;;;;;8.45;7.65;;;;;;;6.56;76.88867;94057.05;;;;
2019/05/18 03:45:25;;;;;;;8.45;7.65;;;;;;;6.56;76.88867;94057.05;;;;
2019/05/18 03:46:26;;;;;;;8.45;7.65;;;;;;;6.56;76.88867;94057.05;;;;
2019/05/18 03:47:27;;;;;;;8.45;7.65;;;;;;;6.56;76.88867;94057.05;;;;
2019/05/18 03:48:28;;;;;;;8.45;7.65;;;;;;;6.56;76.88867;94057.05;;;;
2019/05/18 03:49:29;;;;;;;9.1;8.199999;;;;;;;6.54;77.18359;94060.39;;;;
2019/05/18 03:50:30;;;;;;;9.1;8.199999;;;;;;;6.54;77.18359;94060.39;;;;
2019/05/18 03:51:31;;;;;;;9.1;8.199999;;;;;;;6.54;77.18359;94060.39;;;;
2019/05/18 03:52:32;;;;;;;9.1;8.199999;;;;;;;6.54;77.18359;94060.39;;;;
2019/05/18 03:53:33;;;;;;;9.1;8.199999;;;;;;;6.54;77.18359;94060.39;;;;
2019/05/18 03:54:34;;;;;;;9.1;8.199999;;;;;;;6.54;77.18359;94060.39;;;;
2019/05/18 03:55:35;;;;;;;9.1;8.199999;;;;;;;6.54;77.18359;94060.39;;;;
2019/05/18 03:56:37;;;;;;;9.1;8.199999;;;;;;;6.54;77.18359;94060.39;;;;
2019/05/18 03:57:38;;;;;;;9.1;8.199999;;;;;;;6.54;77.18359;94060.39;;;;
2019/05/18 03:58:39;;;;;;;9.1;8.199999;;;;;;;6.54;77.18359;94060.39;;;;
2019/05/18 03:59:40;;;;;;;8.6;7.8;;;;;;;6.63;77.32617;94070.19;;;;
2019/05/18 04:00:41;;;;;;;8.6;7.8;;;;;;;6.63;77.32617;94070.19;;;;
2019/05/18 04:01:42;;;;;;;8.6;7.8;;;;;;;6.63;77.32617;94070.19;;;;
2019/05/18 04:02:43;;;;;;;8.6;7.8;;;;;;;6.63;77.32617;94070.19;;;;
2019/05/18 04:03:44;;;;;;;8.6;7.8;;;;;;;6.63;77.32617;94070.19;;;;
2019/05/18 04:04:45;;;;;;;8.6;7.8;;;;;;;6.63;77.32617;94070.19;;;;
2019/05/18 04:05:46;;;;;;;8.6;7.8;;;;;;;6.63;77.32617;94070.19;;;;
2019/05/18 04:06:47;;;;;;;8.6;7.8;;;;;;;6.63;77.32617;94070.19;;;;
2019/05/18 04:07:49;;;;;;;8.6;7.8;;;;;;;6.63;77.32617;94070.19;;;;
2019/05/18 04:08:50;;;;;;;8.6;7.8;;;;;;;6.63;77.32617;94070.19;;;;
2019/05/18 04:09:51;;;;;;;8.6;7.8;;;;;;;6.63;77.32617;94070.19;;;;
2019/05/18 04:10:52;;;;;;;9.299999;8.35;;;;;;;6.68;77.47168;94079.25;;;;
2019/05/18 04:11:53;;;;;;;9.299999;8.35;;;;;;;6.68;77.47168;94079.25;;;;
2019/05/18 04:12:54;;;;;;;9.299999;8.35;;;;;;;6.68;77.47168;94079.25;;;;
2019/05/18 04:13:55;;;;;;;9.299999;8.35;;;;;;;6.68;77.47168;94079.25;;;;
2019/05/18 04:14:57;;;;;;;9.299999;8.35;;;;;;;6.68;77.47168;94079.25;;;;
2019/05/18 04:15:58;;;;;;;9.299999;8.35;;;;;;;6.68;77.47168;94079.25;;;;
2019/05/18 04:16:59;;;;;;;9.299999;8.35;;;;;;;6.68;77.47168;94079.25;;;;
2019/05/18 04:18:00;;;;;;;9.299999;8.35;;;;;;;6.68;77.47168;94079.25;;;;
2019/05/18 04:19:01;;;;;;;9.299999;8.35;;;;;;;6.68;77.47168;94079.25;;;;
2019/05/18 04:20:02;;;;;;;9.299999;8.35;;;;;;;6.68;77.47168;94079.25;;;;
2019/05/18 04:21:03;;;;;;;9.299999;8.399999;;;;;;;6.86;77.6416;94083.47;;;;
2019/05/18 04:22:05;;;;;;;9.299999;8.399999;;;;;;;6.86;77.6416;94083.47;;;;
2019/05/18 04:23:06;;;;;;;9.299999;8.399999;;;;;;;6.86;77.6416;94083.47;;;;
2019/05/18 04:24:07;;;;;;;9.299999;8.399999;;;;;;;6.86;77.6416;94083.47;;;;
2019/05/18 04:25:08;;;;;;;9.299999;8.399999;;;;;;;6.86;77.6416;94083.47;;;;
2019/05/18 04:26:10;;;;;;;9.299999;8.399999;;;;;;;6.86;77.6416;94083.47;;;;
2019/05/18 04:27:11;;;;;;;9.299999;8.399999;;;;;;;6.86;77.6416;94083.47;;;;
2019/05/18 04:28:12;;;;;;;9.299999;8.399999;;;;;;;6.86;77.6416;94083.47;;;;
2019/05/18 04:29:13;;;;;;;9.299999;8.399999;;;;;;;6.86;77.6416;94083.47;;;;
2019/05/18 04:30:14;;;;;;;9.299999;8.399999;;;;;;;6.86;77.6416;94083.47;;;;
2019/05/18 04:31:15;;;;;;;9.299999;8.399999;;;;;;;6.86;77.6416;94083.47;;;;
2019/05/18 04:32:17;;;;;;;8.700001;7.9;;;;;;;6.98;77.75879;94088.78;;;;
2019/05/18 04:33:18;;;;;;;8.700001;7.9;;;;;;;6.98;77.75879;94088.78;;;;
2019/05/18 04:34:19;;;;;;;8.700001;7.9;;;;;;;6.98;77.75879;94088.78;;;;
2019/05/18 04:35:20;;;;;;;8.700001;7.9;;;;;;;6.98;77.75879;94088.78;;;;
2019/05/18 04:36:21;;;;;;;8.700001;7.9;;;;;;;6.98;77.75879;94088.78;;;;
2019/05/18 04:37:22;;;;;;;8.700001;7.9;;;;;;;6.98;77.75879;94088.78;;;;
2019/05/18 04:38:23;;;;;;;8.700001;7.9;;;;;;;6.98;77.75879;94088.78;;;;
2019/05/18 04:39:24;;;;;;;8.700001;7.9;;;;;;;6.98;77.75879;94088.78;;;;
2019/05/18 04:40:25;;;;;;;8.700001;7.9;;;;;;;6.98;77.75879;94088.78;;;;
2019/05/18 04:41:26;;;;;;;8.700001;7.9;;;;;;;6.98;77.75879;94088.78;;;;
2019/05/18 04:42:27;;;;;;;9.749999;8.799999;;;;;;;7.19;78.00781;94107.24;;;;
2019/05/18 04:43:28;;;;;;;9.749999;8.799999;;;;;;;7.19;78.00781;94107.24;;;;
2019/05/18 04:44:30;;;;;;;9.749999;8.799999;;;;;;;7.19;78.00781;94107.24;;;;
2019/05/18 04:45:31;;;;;;;9.749999;8.799999;;;;;;;7.19;78.00781;94107.24;;;;
2019/05/18 04:46:32;;;;;;;9.749999;8.799999;;;;;;;7.19;78.00781;94107.24;;;;
2019/05/18 04:47:33;;;;;;;9.749999;8.799999;;;;;;;7.19;78.00781;94107.24;;;;
2019/05/18 04:48:34;;;;;;;9.749999;8.799999;;;;;;;7.19;78.00781;94107.24;;;;
2019/05/18 04:49:35;;;;;;;9.749999;8.799999;;;;;;;7.19;78.00781;94107.24;;;;
2019/05/18 04:50:36;;;;;;;9.749999;8.799999;;;;;;;7.19;78.00781;94107.24;;;;
2019/05/18 04:51:37;;;;;;;9.749999;8.799999;;;;;;;7.19;78.00781;94107.24;;;;
2019/05/18 04:52:38;;;;;;;9.35;8.299999;;;;;;;7.38;78.00098;94101.37;;;;
2019/05/18 04:53:39;;;;;;;9.35;8.299999;;;;;;;7.38;78.00098;94101.37;;;;
2019/05/18 04:54:40;;;;;;;9.35;8.299999;;;;;;;7.38;78.00098;94101.37;;;;
2019/05/18 04:55:41;;;;;;;9.35;8.299999;;;;;;;7.38;78.00098;94101.37;;;;
2019/05/18 04:56:42;;;;;;;9.35;8.299999;;;;;;;7.38;78.00098;94101.37;;;;
2019/05/18 04:57:43;;;;;;;9.35;8.299999;;;;;;;7.38;78.00098;94101.37;;;;
2019/05/18 04:58:45;;;;;;;9.35;8.299999;;;;;;;7.38;78.00098;94101.37;;;;
2019/05/18 04:59:46;;;;;;;9.35;8.299999;;;;;;;7.38;78.00098;94101.37;;;;
2019/05/18 05:00:47;;;;;;;9.35;8.299999;;;;;;;7.38;78.00098;94101.37;;;;
2019/05/18 05:01:48;;;;;;;9.35;8.299999;;;;;;;7.38;78.00098;94101.37;;;;
2019/05/18 05:02:49;;;;;;;9.35;8.299999;;;;;;;7.38;78.00098;94101.37;;;;
2019/05/18 05:03:50;;;;;;;9.549999;8.65;;;;;;;7.78;78.12598;94096.31;;;;
2019/05/18 05:04:51;;;;;;;9.549999;8.65;;;;;;;7.78;78.12598;94096.31;;;;
2019/05/18 05:05:52;;;;;;;9.549999;8.65;;;;;;;7.78;78.12598;94096.31;;;;
2019/05/18 05:06:53;;;;;;;9.549999;8.65;;;;;;;7.78;78.12598;94096.31;;;;
2019/05/18 05:07:54;;;;;;;9.549999;8.65;;;;;;;7.78;78.12598;94096.31;;;;
2019/05/18 05:08:55;;;;;;;9.549999;8.65;;;;;;;7.78;78.12598;94096.31;;;;
2019/05/18 05:09:57;;;;;;;9.549999;8.65;;;;;;;7.78;78.12598;94096.31;;;;
2019/05/18 05:10:58;;;;;;;9.549999;8.65;;;;;;;7.78;78.12598;94096.31;;;;
2019/05/18 05:11:59;;;;;;;9.549999;8.65;;;;;;;7.78;78.12598;94096.31;;;;
2019/05/18 05:13:00;;;;;;;9.549999;8.65;;;;;;;7.78;78.12598;94096.31;;;;
2019/05/18 05:14:01;;;;;;;8.95;7.8;;;;;;;8.25;78.0293;94104.64;;;;
2019/05/18 05:15:02;;;;;;;8.95;7.8;;;;;;;8.25;78.0293;94104.64;;;;
2019/05/18 05:16:03;;;;;;;8.95;7.8;;;;;;;8.25;78.0293;94104.64;;;;
2019/05/18 05:17:04;;;;;;;8.95;7.8;;;;;;;8.25;78.0293;94104.64;;;;
2019/05/18 05:18:06;;;;;;;8.95;7.8;;;;;;;8.25;78.0293;94104.64;;;;
2019/05/18 05:19:07;;;;;;;8.95;7.8;;;;;;;8.25;78.0293;94104.64;;;;
2019/05/18 05:20:08;;;;;;;8.95;7.8;;;;;;;8.25;78.0293;94104.64;;;;
2019/05/18 05:21:09;;;;;;;8.95;7.8;;;;;;;8.25;78.0293;94104.64;;;;
2019/05/18 05:22:10;;;;;;;8.95;7.8;;;;;;;8.25;78.0293;94104.64;;;;
2019/05/18 05:23:11;;;;;;;8.95;7.8;;;;;;;8.25;78.0293;94104.64;;;;
2019/05/18 05:24:12;;;;;;;8.95;7.8;;;;;;;8.25;78.0293;94104.64;;;;
2019/05/18 05:25:13;;;;;;;7.600001;6.85;;;;;;;8.9;77.72949;94107.26;;;;
2019/05/18 05:26:14;;;;;;;7.600001;6.85;;;;;;;8.9;77.72949;94107.26;;;;
2019/05/18 05:27:15;;;;;;;7.600001;6.85;;;;;;;8.9;77.72949;94107.26;;;;
2019/05/18 05:28:16;;;;;;;7.600001;6.85;;;;;;;8.9;77.72949;94107.26;;;;
2019/05/18 05:29:17;;;;;;;7.600001;6.85;;;;;;;8.9;77.72949;94107.26;;;;
2019/05/18 05:30:18;;;;;;;7.600001;6.85;;;;;;;8.9;77.72949;94107.26;;;;
2019/05/18 05:31:19;;;;;;;7.600001;6.85;;;;;;;8.9;77.72949;94107.26;;;;
2019/05/18 05:32:21;;;;;;;7.600001;6.85;;;;;;;8.9;77.72949;94107.26;;;;
2019/05/18 05:33:22;;;;;;;7.600001;6.85;;;;;;;8.9;77.72949;94107.26;;;;
2019/05/18 05:34:23;;;;;;;7.600001;6.85;;;;;;;8.9;77.72949;94107.26;;;;
2019/05/18 05:35:24;;;;;;;7.1;6.4;;;;;;;9.46;77.44629;94109.91;;;;
2019/05/18 05:36:25;;;;;;;7.1;6.4;;;;;;;9.46;77.44629;94109.91;;;;
2019/05/18 05:37:26;;;;;;;7.1;6.4;;;;;;;9.46;77.44629;94109.91;;;;
2019/05/18 05:38:27;;;;;;;7.1;6.4;;;;;;;9.46;77.44629;94109.91;;;;
2019/05/18 05:39:28;;;;;;;7.1;6.4;;;;;;;9.46;77.44629;94109.91;;;;
2019/05/18 05:40:29;;;;;;;7.1;6.4;;;;;;;9.46;77.44629;94109.91;;;;
2019/05/18 05:41:30;;;;;;;7.1;6.4;;;;;;;9.46;77.44629;94109.91;;;;
2019/05/18 05:42:31;;;;;;;7.1;6.4;;;;;;;9.46;77.44629;94109.91;;;;
2019/05/18 05:43:32;;;;;;;7.1;6.4;;;;;;;9.46;77.44629;94109.91;;;;